Cape Hatteras National Seash, North Carolina
Current Conditions -  °F | °C
As of 3:15 AM on Sunday 21 Dec 2014 (Local Time) from KMQI Reporting Station
Clear Clear  
Wind Chill: 33°   Ceiling: Unl
Heat Index: 38°   Visibility: 10mi
Dew Point: 35°   Wind: 8mph
Humidity: 86%   Direction: 10°N
Pressure: 30.27"   Gusts: NA
Location:  35.8834°N, 75.6616°W
Report Text: KMQI 210815Z AUTO 01007KT 10SM CLR 04/02 A3027 RMK AO2 T00360015
Loading
Personal Weather Stations






























Interactive Weather Map New forecast layout! Learn more

10-Day Weather Forecast

Advertisements
Track Severe Weather on mobile